Time;durP1;ratioP1;P1;durP2;ratioP2;P2;SDS_P1;SDS_P2;PMS_P1;PMS_P2;Temp;Humidity;BMP_temperature;BMP_pressure;BME280_temperature;BME280_humidity;BME280_pressure;Samples;Min_cycle;Max_cycle;Signal;HPM_P1;HPM_P2
2020/12/09 00:01:30;;;;;;;49.93;20.17;;;;;;;-0.51;88.13;100251.80;3768858;76;34990;-82
2020/12/09 00:06:36;;;;;;;;;;;;;;;-0.52;88.06;100261.56;3767082;76;98495;-84
2020/12/09 00:11:38;;;;;;;42.47;20.20;;;;;;;-0.52;88.41;100261.56;3778142;76;35026;-83
2020/12/09 00:16:39;;;;;;;41.17;20.03;;;;;;;-0.57;88.50;100260.33;3773729;76;98478;-83
2020/12/09 00:21:40;;;;;;;43.40;17.50;;;;;;;-0.58;88.44;100258.20;3774403;76;35782;-85
2020/12/09 00:26:41;;;;;;;39.47;18.57;;;;;;;-0.60;88.93;100268.50;3766931;76;99043;-82
2020/12/09 00:31:42;;;;;;;47.00;20.03;;;;;;;-0.59;88.64;100266.07;3785835;76;34985;-82
2020/12/09 00:36:43;;;;;;;43.37;21.40;;;;;;;-0.63;88.61;100267.78;3772482;76;98387;-82
2020/12/09 00:41:44;;;;;;;50.37;23.73;;;;;;;-0.64;88.99;100258.08;3793942;76;35000;-83
2020/12/09 00:46:45;;;;;;;41.97;16.93;;;;;;;-0.66;89.19;100270.30;3786395;76;98432;-84
2020/12/09 00:51:47;;;;;;;51.13;22.23;;;;;;;-0.64;89.47;100272.95;3797776;76;34928;-82
2020/12/09 00:56:48;;;;;;;46.50;21.17;;;;;;;-0.65;89.01;100271.89;3771979;76;98670;-83
2020/12/09 01:01:49;;;;;;;47.10;19.77;;;;;;;-0.67;89.32;100262.73;3795431;76;35033;-82
2020/12/09 01:06:49;;;;;;;52.83;21.77;;;;;;;-0.67;89.40;100273.55;3794680;76;98500;-81
2020/12/09 01:11:50;;;;;;;43.33;20.37;;;;;;;-0.66;89.53;100281.89;3795181;76;35557;-81
2020/12/09 01:16:54;;;;;;;37.40;16.10;;;;;;;-0.65;89.74;100282.16;3781649;76;98746;-83
2020/12/09 01:21:55;;;;;;;47.00;19.60;;;;;;;-0.61;90.44;100274.23;3803088;76;32726;-80
2020/12/09 01:26:56;;;;;;;44.57;22.33;;;;;;;-0.56;90.51;100264.66;3789381;76;98720;-79
2020/12/09 01:32:00;;;;;;;43.77;19.00;;;;;;;-0.50;90.64;100262.85;3793364;76;32665;-81
2020/12/09 01:37:01;;;;;;;43.73;22.17;;;;;;;-0.46;90.57;100254.38;3784163;76;98486;-81
2020/12/09 01:42:04;;;;;;;41.10;17.60;;;;;;;-0.44;90.56;100251.38;3791621;76;32719;-81
2020/12/09 01:47:06;;;;;;;43.50;18.23;;;;;;;-0.39;90.81;100263.42;3787316;76;98278;-81
2020/12/09 01:52:07;;;;;;;43.23;18.37;;;;;;;-0.37;90.38;100274.70;3799336;76;32624;-80
2020/12/09 01:57:12;;;;;;;43.77;19.47;;;;;;;-0.34;90.39;100274.89;3775581;76;98771;-80
2020/12/09 02:02:14;;;;;;;45.40;19.40;;;;;;;-0.35;90.19;100269.24;3791064;76;32681;-80
2020/12/09 02:07:15;;;;;;;42.17;18.82;;;;;;;-0.35;90.28;100270.59;3784377;75;98806;-80
2020/12/09 02:12:16;;;;;;;38.23;16.97;;;;;;;-0.42;90.17;100272.94;3792174;75;32695;-80
2020/12/09 02:17:17;;;;;;;37.20;15.40;;;;;;;-0.42;90.21;100278.34;3794695;75;98814;-80
2020/12/09 02:22:18;;;;;;;43.27;21.00;;;;;;;-0.42;90.60;100275.64;3787524;76;33354;-81
2020/12/09 02:27:19;;;;;;;48.13;19.97;;;;;;;-0.42;90.26;100265.61;3785470;76;98809;-80
2020/12/09 02:32:21;;;;;;;44.70;19.13;;;;;;;-0.44;90.35;100262.97;3806530;76;33275;-80
2020/12/09 02:37:22;;;;;;;44.30;20.83;;;;;;;-0.44;90.49;100254.08;3812725;75;98651;-79
2020/12/09 02:42:23;;;;;;;41.50;18.03;;;;;;;-0.48;90.36;100256.61;3813876;75;32599;-80
2020/12/09 02:47:24;;;;;;;34.67;17.77;;;;;;;-0.44;90.49;100255.44;3805416;76;98652;-81
2020/12/09 02:52:25;;;;;;;43.10;18.70;;;;;;;-0.42;90.41;100258.85;3810995;75;32265;-78
2020/12/09 02:57:26;;;;;;;37.97;16.77;;;;;;;-0.42;90.54;100258.61;3803593;75;98441;-81
2020/12/09 03:02:26;;;;;;;38.87;17.13;;;;;;;-0.37;90.63;100257.14;3814471;75;30814;-80
2020/12/09 03:07:27;;;;;;;38.73;17.87;;;;;;;-0.39;90.56;100251.25;3804524;75;98862;-80
2020/12/09 03:12:28;;;;;;;40.57;17.77;;;;;;;-0.39;90.69;100251.25;3809847;76;26816;-80
2020/12/09 03:17:29;;;;;;;40.53;16.73;;;;;;;-0.38;90.92;100240.68;3771369;76;98518;-80
2020/12/09 03:22:30;;;;;;;38.93;16.00;;;;;;;-0.37;90.64;100245.21;3809901;75;26301;-81
2020/12/09 03:27:31;;;;;;;36.67;17.23;;;;;;;-0.34;91.00;100263.30;3805416;75;98936;-80
2020/12/09 03:32:32;;;;;;;30.20;13.27;;;;;;;-0.36;90.86;100252.78;3800489;76;26477;-80
2020/12/09 03:37:32;;;;;;;36.03;16.40;;;;;;;-0.33;91.09;100258.13;3807979;75;98354;-80
2020/12/09 03:42:33;;;;;;;41.10;17.75;;;;;;;-0.32;90.92;100266.72;3809945;75;26447;-81
2020/12/09 03:47:34;;;;;;;40.87;18.67;;;;;;;-0.30;90.92;100258.30;3793937;75;98756;-79
2020/12/09 03:52:36;;;;;;;37.93;16.80;;;;;;;-0.30;90.87;100258.30;3804237;75;33275;-80
2020/12/09 03:57:37;;;;;;;36.50;15.63;;;;;;;-0.26;90.75;100261.42;3793804;76;98438;-80
2020/12/09 04:02:38;;;;;;;34.10;14.83;;;;;;;-0.23;90.67;100263.28;3811298;76;33298;-82
2020/12/09 04:07:39;;;;;;;36.00;14.80;;;;;;;-0.28;90.74;100265.53;3793992;76;98695;-82
2020/12/09 04:12:40;;;;;;;35.00;16.77;;;;;;;-0.22;90.54;100267.58;3811433;75;33277;-81
2020/12/09 04:17:41;;;;;;;34.40;17.33;;;;;;;-0.25;90.53;100273.05;3728324;77;98500;-79
2020/12/09 04:22:41;;;;;;;28.03;13.57;;;;;;;-0.23;90.28;100275.45;3700131;78;32454;-81
2020/12/09 04:27:42;;;;;;;38.73;18.03;;;;;;;-0.24;90.34;100286.02;3727567;77;98778;-80
2020/12/09 04:32:43;;;;;;;36.73;17.87;;;;;;;-0.37;90.19;100265.25;3732840;77;28603;-80
2020/12/09 04:37:45;;;;;;;34.93;16.53;;;;;;;-0.26;90.14;100274.16;3735041;77;98710;-79
2020/12/09 04:42:59;;;;;;;39.83;18.03;;;;;;;-0.23;90.14;100271.39;3732715;77;32224;-80
2020/12/09 04:48:11;;;;;;;36.87;16.47;;;;;;;-0.22;89.94;100281.33;3752619;77;98621;-80
2020/12/09 04:53:26;;;;;;;34.60;17.03;;;;;;;-0.17;89.96;100296.08;3763065;77;31731;-81
2020/12/09 04:58:39;;;;;;;40.00;17.33;;;;;;;-0.19;89.81;100297.49;3781592;76;98635;-80
2020/12/09 05:03:44;;;;;;;35.43;16.70;;;;;;;-0.22;89.85;100312.97;3786889;76;31794;-79
2020/12/09 05:08:57;;;;;;;36.10;15.18;;;;;;;-0.22;89.80;100304.32;3746884;77;98801;-80
2020/12/09 05:13:59;;;;;;;32.37;15.73;;;;;;;-0.21;89.74;100306.48;3760627;77;98544;-80
2020/12/09 05:19:04;;;;;;;35.57;17.03;;;;;;;-0.21;89.61;100309.19;3754770;77;31771;-79
2020/12/09 05:24:05;;;;;;;37.03;17.30;;;;;;;-0.21;89.82;100320.78;3768948;77;98552;-80
2020/12/09 05:29:18;;;;;;;44.90;19.77;;;;;;;-0.20;89.58;100312.91;3763886;77;31673;-80
2020/12/09 05:34:30;;;;;;;35.28;17.62;;;;;;;-0.22;89.43;100312.97;3798250;76;98478;-81
2020/12/09 05:39:31;;;;;;;33.73;16.87;;;;;;;-0.21;89.54;100306.48;3811051;76;31754;-80
2020/12/09 05:44:33;;;;;;;36.03;15.07;;;;;;;-0.20;89.32;100314.83;3806396;76;98998;-81
2020/12/09 05:49:37;;;;;;;30.43;14.83;;;;;;;-0.26;89.28;100330.38;3816783;76;31769;-78
2020/12/09 05:54:45;;;;;;;33.02;15.10;;;;;;;-0.28;89.14;100348.01;3804888;76;98464;-79
2020/12/09 05:59:48;;;;;;;36.70;15.47;;;;;;;-0.36;89.23;100341.43;3816747;75;31972;-81
2020/12/09 06:05:01;;;;;;;35.03;15.10;;;;;;;-0.37;89.32;100336.89;3702636;78;98965;-79
2020/12/09 06:10:17;;;;;;;24.07;11.27;;;;;;;-0.40;89.20;100329.41;3738402;77;31730;-80
2020/12/09 06:15:21;;;;;;;30.43;14.13;;;;;;;-0.45;89.26;100322.77;3732629;77;98482;-80
2020/12/09 06:20:24;;;;;;;38.23;16.13;;;;;;;-0.50;89.26;100335.05;3741696;77;32229;-81
2020/12/09 06:25:26;;;;;;;35.80;15.03;;;;;;;-0.52;89.40;100322.37;3719339;78;99183;-79
2020/12/09 06:30:29;;;;;;;37.80;16.23;;;;;;;-0.51;89.24;100324.78;3734499;77;32174;-79
2020/12/09 06:35:31;;;;;;;32.45;15.95;;;;;;;-0.57;89.44;100321.95;3728341;77;98919;-79
2020/12/09 06:40:32;;;;;;;30.63;14.40;;;;;;;-0.59;89.37;100330.93;3803276;76;32147;-79
2020/12/09 06:45:47;;;;;;;27.40;13.57;;;;;;;-0.62;89.37;100343.69;3801076;76;98779;-79
2020/12/09 06:50:48;;;;;;;31.30;12.87;;;;;;;-0.62;89.50;100351.02;3816112;76;32240;-80
2020/12/09 06:55:51;;;;;;;29.40;13.63;;;;;;;-0.60;89.50;100365.79;3702180;78;98865;-78
2020/12/09 07:01:06;;;;;;;33.23;13.73;;;;;;;-0.59;89.51;100359.31;3732681;77;31741;-78
2020/12/09 07:06:24;;;;;;;26.10;11.87;;;;;;;-0.61;89.41;100358.02;3732322;77;98920;-81
2020/12/09 07:11:25;;;;;;;32.13;15.10;;;;;;;-0.59;89.65;100370.12;3732236;77;31801;-79
2020/12/09 07:16:30;;;;;;;30.03;11.77;;;;;;;-0.52;89.55;100377.78;3735325;77;98598;-80
2020/12/09 07:21:30;;;;;;;31.97;16.27;;;;;;;-0.47;89.53;100376.56;3758311;77;32805;-79
2020/12/09 07:26:31;;;;;;;33.40;16.40;;;;;;;-0.42;89.48;100378.37;3748797;77;98518;-78
2020/12/09 07:31:32;;;;;;;37.40;16.80;;;;;;;-0.39;89.41;100377.74;3769131;76;31644;-77
2020/12/09 07:36:33;;;;;;;39.47;16.47;;;;;;;-0.33;89.44;100381.92;3721050;77;99008;-79
2020/12/09 07:41:46;;;;;;;38.63;16.80;;;;;;;-0.31;89.37;100392.68;3766125;78;30881;-78
2020/12/09 07:46:59;;;;;;;42.63;17.37;;;;;;;-0.25;89.52;100390.67;3790970;76;99076;-79
2020/12/09 07:52:00;;;;;;;43.50;20.13;;;;;;;-0.15;89.57;100403.96;3722375;77;31811;-79
2020/12/09 07:57:01;;;;;;;35.00;16.30;;;;;;;-0.10;89.34;100403.27;3757567;76;98916;-78
2020/12/09 08:02:20;;;;;;;42.03;18.23;;;;;;;-0.06;89.47;100405.61;3775429;76;31961;-79
2020/12/09 08:07:23;;;;;;;35.70;12.63;;;;;;;-0.02;89.41;100396.33;3773651;76;98669;-79
2020/12/09 08:12:26;;;;;;;30.20;13.90;;;;;;;-0.01;89.62;100400.09;3728405;77;32365;-80
2020/12/09 08:17:29;;;;;;;41.83;16.07;;;;;;;0.00;89.64;100393.56;3777110;76;98141;-80
2020/12/09 08:22:31;;;;;;;33.07;15.77;;;;;;;0.09;89.70;100394.97;3776973;76;31726;-78
2020/12/09 08:27:42;;;;;;;40.70;17.57;;;;;;;0.18;89.72;100389.85;3771550;76;98240;-78
2020/12/09 08:33:10;;;;;;;33.53;15.67;;;;;;;0.19;89.75;100392.02;3792844;76;31755;-79
2020/12/09 08:38:13;;;;;;;;;;;;;;;0.17;89.98;100404.49;3697792;78;98634;-82
2020/12/09 08:43:14;;;;;;;42.13;17.73;;;;;;;0.24;90.32;100410.27;3695555;78;32063;-78
2020/12/09 08:48:15;;;;;;;41.50;19.20;;;;;;;0.27;90.20;100414.26;3788139;76;98378;-80
2020/12/09 08:53:19;;;;;;;39.20;16.93;;;;;;;0.25;90.37;100409.72;3809034;76;31817;-78
2020/12/09 08:58:20;;;;;;;37.55;17.00;;;;;;;0.28;90.49;100420.72;3792981;76;98456;-78
2020/12/09 09:03:24;;;;;;;40.67;19.70;;;;;;;0.31;90.51;100422.83;3801870;76;31766;-80
2020/12/09 09:08:25;;;;;;;46.55;20.02;;;;;;;0.36;90.56;100419.18;3804817;76;98102;-80
2020/12/09 09:13:26;;;;;;;41.97;19.00;;;;;;;0.38;90.67;100428.59;3821611;75;31761;-80
2020/12/09 09:18:27;;;;;;;43.78;18.10;;;;;;;0.47;90.48;100423.22;3815409;75;98297;-80
2020/12/09 09:23:27;;;;;;;38.47;16.43;;;;;;;0.50;90.64;100422.62;3819428;75;31708;-81
2020/12/09 09:28:28;;;;;;;42.07;15.83;;;;;;;0.52;90.72;100432.03;3677067;78;98593;-80
2020/12/09 09:33:29;;;;;;;43.17;18.10;;;;;;;0.53;90.87;100439.58;3727681;78;32513;-79
2020/12/09 09:38:30;;;;;;;42.60;16.93;;;;;;;0.48;90.80;100441.88;3694839;78;98365;-80
2020/12/09 09:43:31;;;;;;;33.30;14.83;;;;;;;0.54;90.89;100439.81;3802005;76;27934;-79
2020/12/09 09:48:32;;;;;;;36.58;16.17;;;;;;;0.64;90.88;100440.91;3785599;76;98468;-81
2020/12/09 09:53:33;;;;;;;42.03;18.33;;;;;;;0.67;90.84;100438.95;3793535;76;35440;-79
2020/12/09 09:58:34;;;;;;;39.93;14.53;;;;;;;0.63;90.83;100429.84;3787933;75;98713;-80
2020/12/09 10:03:35;;;;;;;41.73;17.67;;;;;;;0.64;90.87;100430.89;3803220;76;35001;-80
2020/12/09 10:08:36;;;;;;;42.73;18.83;;;;;;;0.67;90.70;100426.77;3796784;76;98122;-81
2020/12/09 10:13:37;;;;;;;38.17;14.37;;;;;;;0.68;90.66;100427.81;3795759;76;35019;-79
2020/12/09 10:18:37;;;;;;;49.07;22.47;;;;;;;0.68;90.69;100425.64;3786901;76;101045;-82
2020/12/09 10:23:38;;;;;;;36.13;16.73;;;;;;;0.69;90.93;100434.82;3798145;76;34964;-82
2020/12/09 10:28:39;;;;;;;42.30;18.03;;;;;;;0.65;90.80;100430.31;3779437;76;98359;-81
2020/12/09 10:33:40;;;;;;;45.70;18.03;;;;;;;0.66;91.04;100437.36;3785829;76;33146;-79
2020/12/09 10:38:42;;;;;;;45.27;19.97;;;;;;;0.70;90.97;100435.60;3765735;76;98677;-81
2020/12/09 10:43:43;;;;;;;35.77;17.40;;;;;;;0.76;90.95;100435.70;3726889;77;32650;-80
2020/12/09 10:48:45;;;;;;;41.13;18.20;;;;;;;0.74;90.88;100447.42;3696776;77;97998;-79
2020/12/09 10:53:46;;;;;;;39.03;15.87;;;;;;;0.72;91.00;100439.59;3710068;77;32756;-79
2020/12/09 10:58:47;;;;;;;35.73;16.30;;;;;;;0.71;91.02;100438.58;3702657;77;98259;-80
2020/12/09 11:03:48;;;;;;;47.53;23.00;;;;;;;0.76;90.99;100445.19;3720967;77;33902;-80
2020/12/09 11:08:49;;;;;;;44.43;19.77;;;;;;;0.82;90.95;100437.98;3724527;77;98081;-81
2020/12/09 11:13:51;;;;;;;49.40;19.37;;;;;;;0.83;90.76;100436.08;3731958;77;33485;-80
2020/12/09 11:18:53;;;;;;;42.80;17.27;;;;;;;0.77;90.78;100427.27;3720745;77;98675;-81
2020/12/09 11:23:54;;;;;;;39.70;17.00;;;;;;;0.83;90.77;100428.73;3710730;77;98757;-80
2020/12/09 11:28:57;;;;;;;45.50;21.10;;;;;;;0.82;90.63;100430.42;3730199;77;32642;-80
2020/12/09 11:33:58;;;;;;;41.33;18.77;;;;;;;0.83;90.64;100424.67;3724866;77;99026;-80
2020/12/09 11:38:59;;;;;;;39.77;16.87;;;;;;;0.77;90.44;100418.37;3737482;77;33878;-79
2020/12/09 11:44:01;;;;;;;39.43;15.93;;;;;;;0.82;90.80;100422.30;3724164;77;98809;-81
2020/12/09 11:49:02;;;;;;;40.80;17.23;;;;;;;0.87;90.34;100422.12;3749765;77;32729;-79
2020/12/09 11:54:03;;;;;;;44.93;20.83;;;;;;;0.87;90.19;100409.94;3742100;77;98299;-81
2020/12/09 11:59:04;;;;;;;43.73;20.40;;;;;;;0.82;90.29;100401.41;3738559;77;32683;-83
2020/12/09 12:04:05;;;;;;;43.33;17.70;;;;;;;0.82;90.14;100405.47;3738104;77;98307;-81
2020/12/09 12:09:06;;;;;;;49.80;18.67;;;;;;;0.71;90.15;100409.56;3738360;77;32911;-79
2020/12/09 12:14:07;;;;;;;42.87;19.23;;;;;;;0.73;90.31;100419.52;3732858;77;98673;-80
2020/12/09 12:19:09;;;;;;;40.57;16.93;;;;;;;0.73;90.16;100420.88;3741431;77;32633;-80
2020/12/09 12:24:10;;;;;;;43.27;18.33;;;;;;;0.75;90.18;100417.32;3740873;77;98902;-80
2020/12/09 12:29:11;;;;;;;39.97;17.83;;;;;;;0.77;90.02;100408.31;3748196;77;32740;-80
2020/12/09 12:34:12;;;;;;;43.85;19.42;;;;;;;0.67;89.99;100405.88;3723191;77;98480;-80
2020/12/09 12:39:13;;;;;;;42.40;17.00;;;;;;;0.64;90.19;100405.70;3704002;78;32693;-81
2020/12/09 12:44:14;;;;;;;41.73;19.07;;;;;;;0.62;90.01;100401.17;3651054;79;98516;-83
2020/12/09 12:49:16;;;;;;;43.00;18.23;;;;;;;0.62;90.17;100418.77;3688915;78;27711;-80
2020/12/09 12:54:18;;;;;;;44.13;18.10;;;;;;;0.66;90.16;100400.80;3676593;78;98609;-81
2020/12/09 12:59:19;;;;;;;52.70;23.77;;;;;;;0.65;90.00;100416.23;3687272;78;27511;-80
2020/12/09 13:04:19;;;;;;;47.30;20.67;;;;;;;0.61;89.60;100404.99;3684421;78;98908;-81
2020/12/09 13:09:21;;;;;;;52.80;20.30;;;;;;;0.55;89.65;100402.96;3692924;78;25997;-81
2020/12/09 13:14:22;;;;;;;47.60;20.13;;;;;;;0.53;89.64;100400.32;3693101;78;98510;-81
2020/12/09 13:19:23;;;;;;;48.73;20.97;;;;;;;0.45;89.34;100414.05;3707949;78;26359;-81
2020/12/09 13:24:23;;;;;;;52.73;22.07;;;;;;;0.38;89.57;100396.11;3704182;78;98917;-81
2020/12/09 13:29:24;;;;;;;51.97;21.83;;;;;;;0.32;89.46;100408.17;3664416;79;26252;-81
2020/12/09 13:34:25;;;;;;;50.27;22.30;;;;;;;0.30;89.69;100404.18;3687196;77;99019;-81
2020/12/09 13:39:26;;;;;;;59.23;28.63;;;;;;;0.27;89.57;100400.19;3737049;77;26200;-80
2020/12/09 13:44:27;;;;;;;64.20;27.58;;;;;;;0.26;89.81;100399.13;3674464;78;98631;-80
2020/12/09 13:49:29;;;;;;;48.57;23.40;;;;;;;0.30;89.65;100404.18;3800872;76;33190;-80
2020/12/09 13:54:30;;;;;;;48.03;20.33;;;;;;;0.23;89.50;100410.59;3682213;78;98700;-81
2020/12/09 13:59:31;;;;;;;42.30;20.70;;;;;;;0.19;89.49;100421.23;3717650;77;33289;-81
2020/12/09 14:04:32;;;;;;;73.10;31.33;;;;;;;0.16;89.36;100415.62;3723385;77;98681;-79
2020/12/09 14:09:33;;;;;;;59.67;25.90;;;;;;;0.22;89.44;100407.08;3795168;76;33353;-81
2020/12/09 14:14:34;;;;;;;49.90;22.47;;;;;;;0.25;89.27;100413.78;3782426;76;98605;-80
2020/12/09 14:19:37;;;;;;;50.00;22.67;;;;;;;0.19;88.98;100410.95;3685904;78;33448;-79
2020/12/09 14:24:38;;;;;;;55.53;21.43;;;;;;;0.21;88.62;100413.60;3685885;78;99042;-79
2020/12/09 14:29:39;;;;;;;70.00;26.27;;;;;;;0.19;88.58;100413.66;3676789;78;33630;-79
2020/12/09 14:34:40;;;;;;;54.60;24.53;;;;;;;0.17;88.62;100418.02;3730197;77;98547;-79
2020/12/09 14:39:41;;;;;;;50.27;24.33;;;;;;;0.23;88.49;100407.89;3724421;77;33260;-80
2020/12/09 14:44:42;;;;;;;46.17;21.90;;;;;;;0.25;88.33;100415.94;3725464;77;98639;-82
2020/12/09 14:49:43;;;;;;;53.55;24.60;;;;;;;0.22;87.97;100411.14;3699792;77;33339;-81
2020/12/09 14:54:44;;;;;;;58.07;23.47;;;;;;;0.11;88.14;100420.61;3712681;77;98770;-81
2020/12/09 14:59:46;;;;;;;49.53;22.83;;;;;;;0.04;87.91;100411.33;3798677;76;31836;-82
2020/12/09 15:04:50;;;;;;;53.93;23.87;;;;;;;0.00;88.07;100422.53;3790708;76;98689;-81
2020/12/09 15:09:51;;;;;;;57.23;24.97;;;;;;;-0.09;88.13;100421.66;3803052;76;33832;-81
2020/12/09 15:14:52;;;;;;;55.00;23.47;;;;;;;-0.13;88.36;100423.95;3792974;76;98756;-80
2020/12/09 15:19:53;;;;;;;56.40;24.63;;;;;;;-0.02;88.53;100422.59;3807404;75;33349;-81
2020/12/09 15:24:54;;;;;;;56.07;25.17;;;;;;;0.08;88.59;100425.30;3670683;78;98939;-79
2020/12/09 15:29:55;;;;;;;50.57;20.30;;;;;;;0.14;88.16;100416.49;3731119;77;31617;-81
2020/12/09 15:34:56;;;;;;;56.50;23.97;;;;;;;0.09;88.02;100436.91;3723436;78;98359;-80
2020/12/09 15:39:57;;;;;;;53.48;24.20;;;;;;;-0.06;88.11;100435.91;3801058;76;31494;-80
2020/12/09 15:44:58;;;;;;;51.97;22.53;;;;;;;-0.05;88.24;100436.19;3792310;76;98997;-80
2020/12/09 15:50:03;;;;;;;64.12;24.72;;;;;;;-0.02;88.39;100435.02;3797254;76;31371;-80
2020/12/09 15:55:06;;;;;;;59.80;25.60;;;;;;;-0.06;88.32;100435.91;3674711;78;98894;-83
2020/12/09 16:00:11;;;;;;;71.97;29.50;;;;;;;-0.08;88.31;100435.43;3728103;78;33451;-81
2020/12/09 16:05:13;;;;;;;53.40;23.83;;;;;;;-0.06;88.50;100433.20;3718440;77;98496;-81
2020/12/09 16:10:14;;;;;;;49.83;19.97;;;;;;;-0.02;88.36;100435.02;3691872;78;33322;-81
2020/12/09 16:15:14;;;;;;;55.27;24.57;;;;;;;-0.04;88.40;100443.97;3734666;77;99003;-81
2020/12/09 16:20:15;;;;;;;60.53;22.47;;;;;;;-0.09;88.52;100431.91;3735879;77;33811;-81
2020/12/09 16:25:16;;;;;;;51.73;23.27;;;;;;;-0.07;88.62;100442.44;3707709;77;98978;-80
2020/12/09 16:30:17;;;;;;;54.30;23.47;;;;;;;-0.10;88.49;100433.02;3741134;77;31774;-80
2020/12/09 16:35:20;;;;;;;58.53;23.77;;;;;;;-0.08;88.46;100430.02;3719602;77;98996;-79
2020/12/09 16:40:21;;;;;;;57.60;24.13;;;;;;;-0.13;88.67;100435.55;3691801;79;31840;-79
2020/12/09 16:45:22;;;;;;;60.10;24.63;;;;;;;-0.11;88.67;100434.14;3674463;79;98459;-79
2020/12/09 16:50:24;;;;;;;55.93;24.03;;;;;;;-0.11;88.68;100447.66;3691464;78;32026;-81
2020/12/09 16:55:27;;;;;;;52.00;23.03;;;;;;;-0.08;88.55;100453.02;3658302;79;98576;-80
2020/12/09 17:00:28;;;;;;;61.87;27.50;;;;;;;-0.06;88.62;100450.25;3678919;79;33329;-79
2020/12/09 17:05:30;;;;;;;55.80;22.93;;;;;;;-0.05;88.68;100455.90;3704232;78;98505;-80
2020/12/09 17:10:31;;;;;;;60.23;25.87;;;;;;;-0.09;88.58;100454.91;3711260;78;33549;-80
2020/12/09 17:15:37;;;;;;;55.63;24.77;;;;;;;-0.10;88.63;100449.25;3714137;77;98880;-80
2020/12/09 17:20:35;;;;;;;66.67;28.57;;;;;;;-0.09;88.60;100446.78;3690585;78;33392;-79
2020/12/09 17:25:36;;;;;;;57.07;24.13;;;;;;;-0.16;88.67;100457.81;3662971;79;98932;-79
2020/12/09 17:30:37;;;;;;;56.80;24.13;;;;;;;-0.17;88.88;100453.48;3698320;78;33677;-79
2020/12/09 17:35:40;;;;;;;68.23;28.33;;;;;;;-0.09;88.96;100440.59;3702934;78;99325;-79
2020/12/09 17:40:40;;;;;;;57.90;24.53;;;;;;;-0.16;88.67;100432.12;3732011;77;33389;-79
2020/12/09 17:45:41;;;;;;;60.60;24.73;;;;;;;-0.18;88.65;100451.11;3807558;75;99249;-79
2020/12/09 17:50:42;;;;;;;66.77;27.20;;;;;;;-0.16;88.79;100442.94;3811048;76;33749;-80
2020/12/09 17:55:43;;;;;;;64.63;24.83;;;;;;;-0.19;88.79;100435.42;3801810;76;100430;-79
2020/12/09 18:00:44;;;;;;;54.23;24.05;;;;;;;-0.23;88.95;100441.75;3813624;76;33783;-78
2020/12/09 18:05:47;;;;;;;59.20;24.27;;;;;;;-0.29;89.02;100432.94;3804331;76;98880;-78
2020/12/09 18:10:50;;;;;;;63.43;26.53;;;;;;;-0.26;89.08;100448.00;3807126;76;33712;-79
2020/12/09 18:15:51;;;;;;;62.70;24.77;;;;;;;-0.27;89.14;100450.46;3793014;76;98621;-79
2020/12/09 18:20:51;;;;;;;58.33;24.20;;;;;;;-0.29;89.03;100453.80;3809176;76;33423;-78
2020/12/09 18:25:52;;;;;;;64.03;26.77;;;;;;;-0.32;89.19;100464.09;3803313;76;98883;-81
2020/12/09 18:30:53;;;;;;;60.37;26.23;;;;;;;-0.27;89.31;100447.76;3799711;76;33319;-81
2020/12/09 18:35:54;;;;;;;59.87;24.30;;;;;;;-0.27;89.08;100455.62;3798467;76;98673;-81
2020/12/09 18:40:55;;;;;;;67.47;30.23;;;;;;;-0.28;89.10;100450.76;3780041;76;32480;-82
2020/12/09 18:45:56;;;;;;;59.47;24.03;;;;;;;-0.31;89.10;100445.41;3776058;76;98963;-81
2020/12/09 18:50:57;;;;;;;61.77;25.53;;;;;;;-0.21;89.15;100440.34;3797253;75;30504;-81
2020/12/09 18:55:58;;;;;;;59.50;25.68;;;;;;;-0.17;88.86;100437.25;3737678;77;98683;-81
2020/12/09 19:00:59;;;;;;;68.40;27.50;;;;;;;-0.27;88.95;100444.81;3736984;77;32294;-82
2020/12/09 19:05:59;;;;;;;70.77;27.10;;;;;;;-0.36;89.02;100436.05;3731420;77;98878;-81
2020/12/09 19:11:03;;;;;;;61.17;25.07;;;;;;;-0.37;89.24;100441.22;3744654;77;31096;-82
2020/12/09 19:16:03;;;;;;;63.00;26.17;;;;;;;-0.29;89.02;100437.56;3737636;77;98764;-81
2020/12/09 19:21:05;;;;;;;55.13;22.83;;;;;;;-0.31;89.17;100443.27;3747682;77;32323;-82
2020/12/09 19:26:06;;;;;;;67.13;27.90;;;;;;;-0.26;89.21;100434.48;3713215;78;98903;-82
2020/12/09 19:31:07;;;;;;;66.47;32.73;;;;;;;-0.32;89.05;100438.98;3754193;77;31761;-81
2020/12/09 19:36:11;;;;;;;63.60;26.07;;;;;;;-0.29;89.24;100439.70;3723966;78;99040;-81
2020/12/09 19:41:18;;;;;;;65.67;29.87;;;;;;;-0.28;89.13;100449.41;3698082;78;32321;-81
2020/12/09 19:46:24;;;;;;;58.97;24.57;;;;;;;-0.21;89.12;100448.45;3689333;78;98672;-82
2020/12/09 19:51:24;;;;;;;61.90;25.00;;;;;;;-0.19;89.00;100455.70;3698796;78;31825;-81
2020/12/09 19:56:28;;;;;;;64.67;27.30;;;;;;;-0.17;89.10;100462.41;3692547;78;99244;-81
2020/12/09 20:01:30;;;;;;;52.90;23.77;;;;;;;-0.23;88.83;100463.39;3701335;78;31735;-81
2020/12/09 20:06:32;;;;;;;58.63;26.03;;;;;;;-0.27;89.14;100463.98;3690571;78;98725;-81
2020/12/09 20:11:34;;;;;;;56.97;23.83;;;;;;;-0.16;89.26;100462.64;3702343;78;31760;-81
2020/12/09 20:16:36;;;;;;;67.53;28.13;;;;;;;-0.13;89.12;100459.11;3698414;78;98590;-81
2020/12/09 20:21:39;;;;;;;58.20;24.20;;;;;;;-0.11;88.93;100471.19;3697140;78;31789;-81
2020/12/09 20:26:40;;;;;;;52.65;20.90;;;;;;;-0.09;88.80;100473.84;3696482;78;98867;-83
2020/12/09 20:31:41;;;;;;;60.67;25.80;;;;;;;-0.18;88.86;100470.03;3702803;78;31788;-83
2020/12/09 20:36:42;;;;;;;60.03;26.27;;;;;;;-0.18;89.14;100474.09;3687343;78;98783;-82
2020/12/09 20:41:43;;;;;;;59.00;26.13;;;;;;;-0.21;89.11;100473.58;3686714;79;31757;-82
2020/12/09 20:46:44;;;;;;;62.50;28.77;;;;;;;-0.14;88.88;100474.52;3691032;78;98733;-81
2020/12/09 20:51:47;;;;;;;58.63;25.53;;;;;;;-0.18;88.87;100478.16;3693817;79;29958;-81
2020/12/09 20:56:47;;;;;;;61.90;29.80;;;;;;;-0.15;89.15;100483.17;3688925;77;98764;-82
2020/12/09 21:01:48;;;;;;;76.10;30.43;;;;;;;-0.14;88.90;100474.52;3696359;78;32280;-81
2020/12/09 21:06:49;;;;;;;73.93;29.17;;;;;;;-0.22;88.97;100475.80;3688741;78;98493;-82
2020/12/09 21:11:50;;;;;;;73.60;31.87;;;;;;;-0.31;89.09;100479.77;3697032;78;30988;-82
2020/12/09 21:16:53;;;;;;;68.80;26.20;;;;;;;-0.36;89.42;100484.72;3675090;78;98882;-82
2020/12/09 21:21:56;;;;;;;59.47;25.90;;;;;;;-0.42;89.56;100479.75;3690301;78;31744;-83
2020/12/09 21:26:57;;;;;;;57.83;25.10;;;;;;;-0.42;89.70;100483.23;3690081;78;99150;-83
2020/12/09 21:31:59;;;;;;;58.40;25.00;;;;;;;-0.33;89.76;100483.89;3698777;78;31758;-82
2020/12/09 21:37:00;;;;;;;54.50;21.87;;;;;;;-0.21;89.94;100489.80;3686399;78;98790;-83
2020/12/09 21:42:01;;;;;;;56.35;20.70;;;;;;;-0.21;89.47;100477.63;3686000;78;98220;-82
2020/12/09 21:47:02;;;;;;;52.37;23.87;;;;;;;-0.20;89.65;100475.74;3698351;78;31800;-84
2020/12/09 21:52:09;;;;;;;50.10;19.70;;;;;;;-0.17;89.56;100469.70;3680987;78;98589;-83
2020/12/09 21:57:09;;;;;;;;;;;;;;;-0.27;89.49;100465.09;3696438;78;26720;-82
2020/12/09 22:02:14;;;;;;;56.00;21.57;;;;;;;-0.37;89.65;100458.02;3697139;78;84241;-82
2020/12/09 22:07:15;;;;;;;52.70;19.97;;;;;;;-0.37;89.81;100466.12;3694507;78;32691;-82
2020/12/09 22:12:18;;;;;;;59.00;22.20;;;;;;;-0.40;89.85;100463.23;3684796;79;98933;-83
2020/12/09 22:17:19;;;;;;;54.83;23.07;;;;;;;-0.34;89.92;100469.55;3702506;78;31760;-83
2020/12/09 22:22:20;;;;;;;62.30;23.70;;;;;;;-0.37;89.91;100458.02;3702214;78;98520;-83
2020/12/09 22:27:21;;;;;;;55.30;21.27;;;;;;;-0.33;90.10;100450.87;3709928;78;31676;-83
2020/12/09 22:32:24;;;;;;;59.30;23.40;;;;;;;-0.46;89.96;100455.77;3693911;78;99081;-83
2020/12/09 22:37:24;;;;;;;54.80;21.23;;;;;;;-0.43;90.22;100439.49;3691779;78;31965;-83
2020/12/09 22:42:25;;;;;;;50.20;18.73;;;;;;;-0.44;90.06;100446.79;3674284;78;98483;-82
2020/12/09 22:47:26;;;;;;;54.47;19.57;;;;;;;-0.42;89.99;100454.60;3698780;78;31730;-84
2020/12/09 22:52:32;;;;;;;52.13;22.47;;;;;;;-0.42;90.23;100447.30;3687572;78;98865;-83
2020/12/09 22:57:33;;;;;;;52.63;21.53;;;;;;;-0.41;90.16;100451.61;3701452;78;31678;-83